sensor_id;sensor_type;location;lat;lon;timestamp;P1;durP1;ratioP1;P2;durP2;ratioP2
16270;SDS011;8243;49.048;8.396;2023-04-01T00:00:18;3.00;;;1.23;;
16270;SDS011;8243;49.048;8.396;2023-04-01T00:02:44;1.83;;;1.00;;
16270;SDS011;8243;49.048;8.396;2023-04-01T00:05:11;2.40;;;1.00;;
16270;SDS011;8243;49.048;8.396;2023-04-01T00:07:37;2.90;;;1.20;;
16270;SDS011;8243;49.048;8.396;2023-04-01T00:10:04;4.67;;;1.40;;
16270;SDS011;8243;49.048;8.396;2023-04-01T00:12:34;3.60;;;1.30;;
16270;SDS011;8243;49.048;8.396;2023-04-01T00:15:01;2.50;;;1.40;;
16270;SDS011;8243;49.048;8.396;2023-04-01T00:17:28;4.00;;;1.67;;
16270;SDS011;8243;49.048;8.396;2023-04-01T00:19:56;5.33;;;2.37;;
16270;SDS011;8243;49.048;8.396;2023-04-01T00:22:22;2.87;;;1.63;;
16270;SDS011;8243;49.048;8.396;2023-04-01T00:24:48;3.33;;;1.20;;
16270;SDS011;8243;49.048;8.396;2023-04-01T00:27:14;2.73;;;1.30;;
16270;SDS011;8243;49.048;8.396;2023-04-01T00:29:46;3.10;;;1.63;;
16270;SDS011;8243;49.048;8.396;2023-04-01T00:32:13;3.63;;;1.27;;
16270;SDS011;8243;49.048;8.396;2023-04-01T00:34:39;3.80;;;1.73;;
16270;SDS011;8243;49.048;8.396;2023-04-01T00:37:06;4.97;;;1.70;;
16270;SDS011;8243;49.048;8.396;2023-04-01T00:39:32;3.57;;;1.23;;
16270;SDS011;8243;49.048;8.396;2023-04-01T00:41:59;4.00;;;1.33;;
16270;SDS011;8243;49.048;8.396;2023-04-01T00:44:26;3.00;;;1.37;;
16270;SDS011;8243;49.048;8.396;2023-04-01T00:46:55;2.63;;;1.23;;
16270;SDS011;8243;49.048;8.396;2023-04-01T00:49:22;4.53;;;1.93;;
16270;SDS011;8243;49.048;8.396;2023-04-01T00:51:52;4.13;;;1.47;;
16270;SDS011;8243;49.048;8.396;2023-04-01T00:54:20;3.87;;;1.67;;
16270;SDS011;8243;49.048;8.396;2023-04-01T00:56:51;5.33;;;1.67;;
16270;SDS011;8243;49.048;8.396;2023-04-01T00:59:31;3.97;;;1.37;;
16270;SDS011;8243;49.048;8.396;2023-04-01T01:02:07;4.47;;;1.40;;
16270;SDS011;8243;49.048;8.396;2023-04-01T01:04:35;3.87;;;1.43;;
16270;SDS011;8243;49.048;8.396;2023-04-01T01:12:49;3.40;;;1.30;;
16270;SDS011;8243;49.048;8.396;2023-04-01T01:37:42;2.43;;;1.33;;
16270;SDS011;8243;49.048;8.396;2023-04-01T01:40:10;2.20;;;1.00;;
16270;SDS011;8243;49.048;8.396;2023-04-01T01:42:39;2.30;;;1.53;;
16270;SDS011;8243;49.048;8.396;2023-04-01T01:45:08;2.37;;;0.83;;
16270;SDS011;8243;49.048;8.396;2023-04-01T01:47:36;1.43;;;0.83;;
16270;SDS011;8243;49.048;8.396;2023-04-01T01:50:03;2.43;;;1.00;;
16270;SDS011;8243;49.048;8.396;2023-04-01T01:52:31;3.53;;;0.93;;
16270;SDS011;8243;49.048;8.396;2023-04-01T01:54:57;3.40;;;0.97;;
16270;SDS011;8243;49.048;8.396;2023-04-01T01:57:28;3.47;;;1.07;;
16270;SDS011;8243;49.048;8.396;2023-04-01T01:59:59;4.17;;;1.00;;
16270;SDS011;8243;49.048;8.396;2023-04-01T02:02:37;1.60;;;0.83;;
16270;SDS011;8243;49.048;8.396;2023-04-01T02:05:08;1.87;;;0.70;;
16270;SDS011;8243;49.048;8.396;2023-04-01T02:07:36;2.50;;;1.37;;
16270;SDS011;8243;49.048;8.396;2023-04-01T02:10:04;3.93;;;1.10;;
16270;SDS011;8243;49.048;8.396;2023-04-01T02:12:31;1.37;;;0.93;;
16270;SDS011;8243;49.048;8.396;2023-04-01T02:15:04;2.63;;;1.10;;
16270;SDS011;8243;49.048;8.396;2023-04-01T02:17:34;1.93;;;0.80;;
16270;SDS011;8243;49.048;8.396;2023-04-01T02:22:41;0.90;;;0.63;;
16270;SDS011;8243;49.048;8.396;2023-04-01T02:25:11;1.43;;;0.73;;
16270;SDS011;8243;49.048;8.396;2023-04-01T02:27:39;2.10;;;0.47;;
16270;SDS011;8243;49.048;8.396;2023-04-01T02:30:08;0.57;;;0.47;;
16270;SDS011;8243;49.048;8.396;2023-04-01T02:32:34;2.33;;;0.50;;
16270;SDS011;8243;49.048;8.396;2023-04-01T02:35:03;0.53;;;0.50;;
16270;SDS011;8243;49.048;8.396;2023-04-01T02:37:31;3.23;;;0.43;;
16270;SDS011;8243;49.048;8.396;2023-04-01T02:40:00;2.37;;;0.50;;
16270;SDS011;8243;49.048;8.396;2023-04-01T02:42:34;0.97;;;0.50;;
16270;SDS011;8243;49.048;8.396;2023-04-01T02:45:00;1.20;;;0.53;;
16270;SDS011;8243;49.048;8.396;2023-04-01T02:47:26;1.17;;;0.50;;
16270;SDS011;8243;49.048;8.396;2023-04-01T02:49:51;0.90;;;0.50;;
16270;SDS011;8243;49.048;8.396;2023-04-01T02:52:23;0.90;;;0.40;;
16270;SDS011;8243;49.048;8.396;2023-04-01T02:54:58;0.53;;;0.53;;
16270;SDS011;8243;49.048;8.396;2023-04-01T02:57:24;1.53;;;0.50;;
16270;SDS011;8243;49.048;8.396;2023-04-01T02:59:50;2.63;;;0.80;;
16270;SDS011;8243;49.048;8.396;2023-04-01T03:02:16;1.23;;;0.50;;
16270;SDS011;8243;49.048;8.396;2023-04-01T03:04:42;1.80;;;0.70;;
16270;SDS011;8243;49.048;8.396;2023-04-01T03:07:08;0.67;;;0.60;;
16270;SDS011;8243;49.048;8.396;2023-04-01T03:09:35;0.77;;;0.50;;
16270;SDS011;8243;49.048;8.396;2023-04-01T03:12:01;0.77;;;0.57;;
16270;SDS011;8243;49.048;8.396;2023-04-01T03:14:27;3.30;;;0.97;;
16270;SDS011;8243;49.048;8.396;2023-04-01T03:16:53;1.57;;;0.73;;
16270;SDS011;8243;49.048;8.396;2023-04-01T03:19:18;1.23;;;0.40;;
16270;SDS011;8243;49.048;8.396;2023-04-01T03:21:44;2.17;;;1.07;;
16270;SDS011;8243;49.048;8.396;2023-04-01T03:24:10;0.93;;;0.60;;
16270;SDS011;8243;49.048;8.396;2023-04-01T03:26:35;2.13;;;0.60;;
16270;SDS011;8243;49.048;8.396;2023-04-01T03:29:01;0.77;;;0.63;;
16270;SDS011;8243;49.048;8.396;2023-04-01T03:31:26;1.40;;;0.60;;
16270;SDS011;8243;49.048;8.396;2023-04-01T03:33:52;1.73;;;0.70;;
16270;SDS011;8243;49.048;8.396;2023-04-01T03:36:17;1.33;;;0.50;;
16270;SDS011;8243;49.048;8.396;2023-04-01T03:38:43;1.33;;;0.90;;
16270;SDS011;8243;49.048;8.396;2023-04-01T03:41:16;1.13;;;0.63;;
16270;SDS011;8243;49.048;8.396;2023-04-01T03:43:42;1.13;;;0.70;;
16270;SDS011;8243;49.048;8.396;2023-04-01T03:46:08;3.47;;;0.90;;
16270;SDS011;8243;49.048;8.396;2023-04-01T03:48:34;1.17;;;0.60;;
16270;SDS011;8243;49.048;8.396;2023-04-01T03:51:00;1.20;;;0.67;;
16270;SDS011;8243;49.048;8.396;2023-04-01T03:53:26;2.03;;;0.80;;
16270;SDS011;8243;49.048;8.396;2023-04-01T03:55:52;2.80;;;0.77;;
16270;SDS011;8243;49.048;8.396;2023-04-01T03:58:18;1.00;;;0.90;;
16270;SDS011;8243;49.048;8.396;2023-04-01T04:00:43;3.27;;;0.83;;
16270;SDS011;8243;49.048;8.396;2023-04-01T04:03:09;2.67;;;1.00;;
16270;SDS011;8243;49.048;8.396;2023-04-01T04:05:35;0.90;;;0.70;;
16270;SDS011;8243;49.048;8.396;2023-04-01T04:08:00;3.67;;;0.90;;
16270;SDS011;8243;49.048;8.396;2023-04-01T04:10:26;2.07;;;0.80;;
16270;SDS011;8243;49.048;8.396;2023-04-01T04:12:51;1.97;;;0.73;;
16270;SDS011;8243;49.048;8.396;2023-04-01T04:15:17;7.20;;;1.50;;
16270;SDS011;8243;49.048;8.396;2023-04-01T04:17:46;3.33;;;1.07;;
16270;SDS011;8243;49.048;8.396;2023-04-01T04:20:12;4.37;;;1.10;;
16270;SDS011;8243;49.048;8.396;2023-04-01T04:22:38;2.33;;;1.00;;
16270;SDS011;8243;49.048;8.396;2023-04-01T04:25:04;3.90;;;1.00;;
16270;SDS011;8243;49.048;8.396;2023-04-01T04:27:30;2.37;;;0.90;;
16270;SDS011;8243;49.048;8.396;2023-04-01T04:29:55;2.63;;;0.90;;
16270;SDS011;8243;49.048;8.396;2023-04-01T04:32:21;2.40;;;1.30;;
16270;SDS011;8243;49.048;8.396;2023-04-01T04:34:46;4.10;;;0.90;;
16270;SDS011;8243;49.048;8.396;2023-04-01T04:37:12;2.10;;;1.20;;
16270;SDS011;8243;49.048;8.396;2023-04-01T04:39:37;2.43;;;1.03;;
16270;SDS011;8243;49.048;8.396;2023-04-01T04:42:03;3.43;;;1.10;;
16270;SDS011;8243;49.048;8.396;2023-04-01T04:44:29;4.03;;;1.57;;
16270;SDS011;8243;49.048;8.396;2023-04-01T04:46:54;5.10;;;1.30;;
16270;SDS011;8243;49.048;8.396;2023-04-01T04:49:20;4.90;;;0.77;;
16270;SDS011;8243;49.048;8.396;2023-04-01T04:51:45;5.63;;;1.90;;
16270;SDS011;8243;49.048;8.396;2023-04-01T04:54:11;3.27;;;1.27;;
16270;SDS011;8243;49.048;8.396;2023-04-01T04:56:37;6.30;;;1.20;;
16270;SDS011;8243;49.048;8.396;2023-04-01T04:59:02;4.50;;;1.23;;
16270;SDS011;8243;49.048;8.396;2023-04-01T05:01:28;6.07;;;1.40;;
16270;SDS011;8243;49.048;8.396;2023-04-01T05:03:53;2.83;;;1.40;;
16270;SDS011;8243;49.048;8.396;2023-04-01T05:06:19;5.67;;;1.70;;
16270;SDS011;8243;49.048;8.396;2023-04-01T05:08:45;6.03;;;1.27;;
16270;SDS011;8243;49.048;8.396;2023-04-01T05:11:15;4.03;;;1.40;;
16270;SDS011;8243;49.048;8.396;2023-04-01T05:13:42;3.13;;;1.20;;
16270;SDS011;8243;49.048;8.396;2023-04-01T05:16:12;4.23;;;1.80;;
16270;SDS011;8243;49.048;8.396;2023-04-01T05:18:40;5.20;;;1.40;;
16270;SDS011;8243;49.048;8.396;2023-04-01T05:21:09;3.27;;;1.20;;
16270;SDS011;8243;49.048;8.396;2023-04-01T05:23:36;2.93;;;1.30;;
16270;SDS011;8243;49.048;8.396;2023-04-01T05:26:03;3.43;;;1.13;;
16270;SDS011;8243;49.048;8.396;2023-04-01T05:28:34;3.60;;;1.00;;
16270;SDS011;8243;49.048;8.396;2023-04-01T05:31:00;3.47;;;1.10;;
16270;SDS011;8243;49.048;8.396;2023-04-01T05:33:27;2.90;;;0.93;;
16270;SDS011;8243;49.048;8.396;2023-04-01T05:35:53;1.53;;;0.60;;
16270;SDS011;8243;49.048;8.396;2023-04-01T05:38:19;1.73;;;0.90;;
16270;SDS011;8243;49.048;8.396;2023-04-01T05:40:45;2.50;;;0.87;;
16270;SDS011;8243;49.048;8.396;2023-04-01T05:43:11;3.23;;;1.00;;
16270;SDS011;8243;49.048;8.396;2023-04-01T05:45:36;1.63;;;0.57;;
16270;SDS011;8243;49.048;8.396;2023-04-01T05:48:02;1.93;;;1.00;;
16270;SDS011;8243;49.048;8.396;2023-04-01T05:50:28;2.30;;;0.97;;
16270;SDS011;8243;49.048;8.396;2023-04-01T05:52:54;1.17;;;0.80;;
16270;SDS011;8243;49.048;8.396;2023-04-01T05:55:20;1.30;;;0.73;;
16270;SDS011;8243;49.048;8.396;2023-04-01T05:57:46;2.97;;;1.00;;
16270;SDS011;8243;49.048;8.396;2023-04-01T06:00:13;2.20;;;0.90;;
16270;SDS011;8243;49.048;8.396;2023-04-01T06:02:40;1.03;;;0.70;;
16270;SDS011;8243;49.048;8.396;2023-04-01T06:05:22;2.37;;;0.80;;
16270;SDS011;8243;49.048;8.396;2023-04-01T06:08:00;2.73;;;0.97;;
16270;SDS011;8243;49.048;8.396;2023-04-01T06:10:38;1.70;;;0.97;;
16270;SDS011;8243;49.048;8.396;2023-04-01T06:16:10;1.37;;;0.80;;
16270;SDS011;8243;49.048;8.396;2023-04-01T06:18:55;2.63;;;1.40;;
16270;SDS011;8243;49.048;8.396;2023-04-01T06:24:54;2.97;;;1.30;;
16270;SDS011;8243;49.048;8.396;2023-04-01T06:33:22;3.60;;;1.27;;
16270;SDS011;8243;49.048;8.396;2023-04-01T06:38:58;1.77;;;1.00;;
16270;SDS011;8243;49.048;8.396;2023-04-01T06:46:45;1.73;;;0.70;;
16270;SDS011;8243;49.048;8.396;2023-04-01T06:49:21;1.67;;;0.83;;
16270;SDS011;8243;49.048;8.396;2023-04-01T06:52:00;3.57;;;1.17;;
16270;SDS011;8243;49.048;8.396;2023-04-01T06:54:37;3.40;;;1.10;;
16270;SDS011;8243;49.048;8.396;2023-04-01T06:57:20;3.97;;;1.00;;
16270;SDS011;8243;49.048;8.396;2023-04-01T06:59:47;2.47;;;1.10;;
16270;SDS011;8243;49.048;8.396;2023-04-01T07:02:21;1.13;;;0.93;;
16270;SDS011;8243;49.048;8.396;2023-04-01T07:05:02;3.40;;;0.90;;
16270;SDS011;8243;49.048;8.396;2023-04-01T07:07:49;1.53;;;0.87;;
16270;SDS011;8243;49.048;8.396;2023-04-01T07:10:32;2.07;;;1.20;;
16270;SDS011;8243;49.048;8.396;2023-04-01T07:13:00;6.03;;;3.23;;
16270;SDS011;8243;49.048;8.396;2023-04-01T07:15:38;4.83;;;1.67;;
16270;SDS011;8243;49.048;8.396;2023-04-01T07:18:16;3.50;;;1.63;;
16270;SDS011;8243;49.048;8.396;2023-04-01T07:20:46;5.53;;;2.00;;
16270;SDS011;8243;49.048;8.396;2023-04-01T07:23:19;5.97;;;1.70;;
16270;SDS011;8243;49.048;8.396;2023-04-01T07:26:01;3.60;;;1.37;;
16270;SDS011;8243;49.048;8.396;2023-04-01T07:28:35;3.30;;;1.47;;
16270;SDS011;8243;49.048;8.396;2023-04-01T07:33:50;2.37;;;1.00;;
16270;SDS011;8243;49.048;8.396;2023-04-01T07:36:45;1.97;;;1.03;;
16270;SDS011;8243;49.048;8.396;2023-04-01T07:39:25;4.93;;;1.17;;
16270;SDS011;8243;49.048;8.396;2023-04-01T07:42:25;3.50;;;1.73;;
16270;SDS011;8243;49.048;8.396;2023-04-01T07:45:46;6.10;;;2.67;;
16270;SDS011;8243;49.048;8.396;2023-04-01T08:00:02;3.97;;;1.70;;
16270;SDS011;8243;49.048;8.396;2023-04-01T08:13:56;3.57;;;1.20;;
16270;SDS011;8243;49.048;8.396;2023-04-01T08:16:23;2.90;;;1.30;;
16270;SDS011;8243;49.048;8.396;2023-04-01T08:21:51;2.27;;;1.50;;
16270;SDS011;8243;49.048;8.396;2023-04-01T08:24:41;3.90;;;1.40;;
16270;SDS011;8243;49.048;8.396;2023-04-01T08:27:11;3.00;;;1.10;;
16270;SDS011;8243;49.048;8.396;2023-04-01T08:29:46;4.67;;;1.60;;
16270;SDS011;8243;49.048;8.396;2023-04-01T08:32:36;1.70;;;1.23;;
16270;SDS011;8243;49.048;8.396;2023-04-01T08:35:24;3.10;;;1.40;;
16270;SDS011;8243;49.048;8.396;2023-04-01T08:37:57;2.97;;;1.30;;
16270;SDS011;8243;49.048;8.396;2023-04-01T08:46:27;3.47;;;1.47;;
16270;SDS011;8243;49.048;8.396;2023-04-01T08:49:06;2.93;;;1.30;;
16270;SDS011;8243;49.048;8.396;2023-04-01T09:20:39;3.50;;;1.60;;
16270;SDS011;8243;49.048;8.396;2023-04-01T09:31:22;2.53;;;1.33;;
16270;SDS011;8243;49.048;8.396;2023-04-01T09:36:38;1.40;;;1.10;;
16270;SDS011;8243;49.048;8.396;2023-04-01T09:39:20;3.40;;;1.23;;
16270;SDS011;8243;49.048;8.396;2023-04-01T09:42:14;2.47;;;0.90;;
16270;SDS011;8243;49.048;8.396;2023-04-01T09:44:59;3.23;;;1.13;;
16270;SDS011;8243;49.048;8.396;2023-04-01T09:50:30;3.20;;;1.53;;
16270;SDS011;8243;49.048;8.396;2023-04-01T09:53:14;1.40;;;1.20;;
16270;SDS011;8243;49.048;8.396;2023-04-01T10:04:35;0.90;;;0.90;;
16270;SDS011;8243;49.048;8.396;2023-04-01T10:09:56;1.23;;;0.90;;
16270;SDS011;8243;49.048;8.396;2023-04-01T10:13:11;2.40;;;1.10;;
16270;SDS011;8243;49.048;8.396;2023-04-01T10:24:28;1.37;;;1.07;;
16270;SDS011;8243;49.048;8.396;2023-04-01T10:49:47;0.80;;;0.80;;
16270;SDS011;8243;49.048;8.396;2023-04-01T11:09:33;1.73;;;1.20;;
16270;SDS011;8243;49.048;8.396;2023-04-01T11:21:03;1.50;;;1.00;;
16270;SDS011;8243;49.048;8.396;2023-04-01T11:23:54;1.17;;;1.00;;
16270;SDS011;8243;49.048;8.396;2023-04-01T11:31:55;0.90;;;0.90;;
16270;SDS011;8243;49.048;8.396;2023-04-01T11:34:35;2.90;;;1.23;;
16270;SDS011;8243;49.048;8.396;2023-04-01T11:40:27;1.40;;;1.10;;
16270;SDS011;8243;49.048;8.396;2023-04-01T11:43:14;1.93;;;1.00;;
16270;SDS011;8243;49.048;8.396;2023-04-01T11:45:59;1.60;;;1.00;;
16270;SDS011;8243;49.048;8.396;2023-04-01T11:48:50;1.77;;;0.90;;
16270;SDS011;8243;49.048;8.396;2023-04-01T11:57:25;2.83;;;0.70;;
16270;SDS011;8243;49.048;8.396;2023-04-01T12:00:20;1.63;;;0.90;;
16270;SDS011;8243;49.048;8.396;2023-04-01T12:14:11;1.07;;;0.97;;
16270;SDS011;8243;49.048;8.396;2023-04-01T12:16:44;1.33;;;0.80;;
16270;SDS011;8243;49.048;8.396;2023-04-01T12:19:35;1.10;;;0.80;;
16270;SDS011;8243;49.048;8.396;2023-04-01T12:36:26;3.50;;;2.20;;
16270;SDS011;8243;49.048;8.396;2023-04-01T12:56:17;1.23;;;0.90;;
16270;SDS011;8243;49.048;8.396;2023-04-01T12:59:13;1.33;;;0.80;;
16270;SDS011;8243;49.048;8.396;2023-04-01T13:04:43;2.00;;;1.00;;
16270;SDS011;8243;49.048;8.396;2023-04-01T13:15:14;0.70;;;0.70;;
16270;SDS011;8243;49.048;8.396;2023-04-01T13:26:31;0.97;;;0.80;;
16270;SDS011;8243;49.048;8.396;2023-04-01T13:29:04;1.10;;;0.63;;
16270;SDS011;8243;49.048;8.396;2023-04-01T13:31:45;1.77;;;0.60;;
16270;SDS011;8243;49.048;8.396;2023-04-01T13:34:33;1.37;;;0.70;;
16270;SDS011;8243;49.048;8.396;2023-04-01T13:40:28;1.20;;;0.70;;
16270;SDS011;8243;49.048;8.396;2023-04-01T13:43:15;0.70;;;0.60;;
16270;SDS011;8243;49.048;8.396;2023-04-01T13:57:52;0.53;;;0.53;;
16270;SDS011;8243;49.048;8.396;2023-04-01T14:06:11;0.90;;;0.70;;
16270;SDS011;8243;49.048;8.396;2023-04-01T14:25:44;2.00;;;0.93;;
16270;SDS011;8243;49.048;8.396;2023-04-01T14:31:23;1.43;;;0.87;;
16270;SDS011;8243;49.048;8.396;2023-04-01T14:34:20;0.97;;;0.80;;
16270;SDS011;8243;49.048;8.396;2023-04-01T14:42:45;2.27;;;0.87;;
16270;SDS011;8243;49.048;8.396;2023-04-01T14:51:16;4.73;;;3.10;;
16270;SDS011;8243;49.048;8.396;2023-04-01T14:53:58;13.10;;;7.60;;
16270;SDS011;8243;49.048;8.396;2023-04-01T14:59:09;6.60;;;4.23;;
16270;SDS011;8243;49.048;8.396;2023-04-01T15:01:50;0.90;;;0.90;;
16270;SDS011;8243;49.048;8.396;2023-04-01T15:04:50;1.50;;;1.13;;
16270;SDS011;8243;49.048;8.396;2023-04-01T15:12:57;2.57;;;1.30;;
16270;SDS011;8243;49.048;8.396;2023-04-01T15:21:12;1.60;;;1.27;;
16270;SDS011;8243;49.048;8.396;2023-04-01T15:24:07;1.53;;;1.10;;
16270;SDS011;8243;49.048;8.396;2023-04-01T15:32:44;1.67;;;1.00;;
16270;SDS011;8243;49.048;8.396;2023-04-01T15:36:06;1.27;;;1.10;;
16270;SDS011;8243;49.048;8.396;2023-04-01T15:40:57;3.23;;;1.40;;
16270;SDS011;8243;49.048;8.396;2023-04-01T15:49:01;1.40;;;1.10;;
16270;SDS011;8243;49.048;8.396;2023-04-01T15:59:41;2.90;;;1.20;;
16270;SDS011;8243;49.048;8.396;2023-04-01T16:02:19;1.63;;;1.20;;
16270;SDS011;8243;49.048;8.396;2023-04-01T16:13:18;3.73;;;2.10;;
16270;SDS011;8243;49.048;8.396;2023-04-01T16:16:25;3.10;;;1.83;;
16270;SDS011;8243;49.048;8.396;2023-04-01T16:21:58;1.80;;;1.40;;
16270;SDS011;8243;49.048;8.396;2023-04-01T16:27:24;2.43;;;1.40;;
16270;SDS011;8243;49.048;8.396;2023-04-01T16:30:03;1.53;;;1.27;;
16270;SDS011;8243;49.048;8.396;2023-04-01T16:35:58;2.77;;;1.27;;
16270;SDS011;8243;49.048;8.396;2023-04-01T16:41:13;1.40;;;1.30;;
16270;SDS011;8243;49.048;8.396;2023-04-01T16:43:47;1.80;;;1.20;;
16270;SDS011;8243;49.048;8.396;2023-04-01T16:51:53;2.10;;;1.30;;
16270;SDS011;8243;49.048;8.396;2023-04-01T16:54:34;1.97;;;1.40;;
16270;SDS011;8243;49.048;8.396;2023-04-01T16:57:28;1.27;;;1.13;;
16270;SDS011;8243;49.048;8.396;2023-04-01T17:02:52;2.30;;;1.50;;
16270;SDS011;8243;49.048;8.396;2023-04-01T17:05:32;1.33;;;1.23;;
16270;SDS011;8243;49.048;8.396;2023-04-01T17:08:09;1.90;;;1.20;;
16270;SDS011;8243;49.048;8.396;2023-04-01T17:10:57;1.53;;;1.27;;
16270;SDS011;8243;49.048;8.396;2023-04-01T17:13:40;1.83;;;1.33;;
16270;SDS011;8243;49.048;8.396;2023-04-01T17:24:59;3.97;;;2.20;;
16270;SDS011;8243;49.048;8.396;2023-04-01T17:27:51;3.80;;;1.67;;
16270;SDS011;8243;49.048;8.396;2023-04-01T17:39:15;4.53;;;2.70;;
16270;SDS011;8243;49.048;8.396;2023-04-01T17:41:54;2.10;;;1.33;;
16270;SDS011;8243;49.048;8.396;2023-04-01T17:47:23;2.17;;;1.37;;
16270;SDS011;8243;49.048;8.396;2023-04-01T17:52:44;1.70;;;1.27;;
16270;SDS011;8243;49.048;8.396;2023-04-01T17:55:40;2.10;;;1.80;;
16270;SDS011;8243;49.048;8.396;2023-04-01T17:58:29;1.70;;;1.60;;
16270;SDS011;8243;49.048;8.396;2023-04-01T18:01:10;2.27;;;1.60;;
16270;SDS011;8243;49.048;8.396;2023-04-01T18:06:36;3.93;;;1.63;;
16270;SDS011;8243;49.048;8.396;2023-04-01T18:12:22;3.00;;;1.80;;
16270;SDS011;8243;49.048;8.396;2023-04-01T18:18:08;3.23;;;1.90;;
16270;SDS011;8243;49.048;8.396;2023-04-01T18:20:57;3.00;;;2.20;;
16270;SDS011;8243;49.048;8.396;2023-04-01T18:23:45;2.23;;;2.00;;
16270;SDS011;8243;49.048;8.396;2023-04-01T18:26:23;2.73;;;1.90;;
16270;SDS011;8243;49.048;8.396;2023-04-01T18:29:23;2.97;;;1.80;;
16270;SDS011;8243;49.048;8.396;2023-04-01T18:32:17;2.37;;;1.77;;
16270;SDS011;8243;49.048;8.396;2023-04-01T18:37:50;2.47;;;1.67;;
16270;SDS011;8243;49.048;8.396;2023-04-01T18:43:16;2.03;;;1.60;;
16270;SDS011;8243;49.048;8.396;2023-04-01T18:45:58;3.70;;;2.33;;
16270;SDS011;8243;49.048;8.396;2023-04-01T18:48:38;2.87;;;2.20;;
16270;SDS011;8243;49.048;8.396;2023-04-01T18:53:55;2.43;;;1.93;;
16270;SDS011;8243;49.048;8.396;2023-04-01T18:56:34;3.40;;;2.20;;
16270;SDS011;8243;49.048;8.396;2023-04-01T19:02:55;4.27;;;2.77;;
16270;SDS011;8243;49.048;8.396;2023-04-01T19:05:09;5.33;;;2.50;;
16270;SDS011;8243;49.048;8.396;2023-04-01T19:21:38;7.63;;;5.13;;
16270;SDS011;8243;49.048;8.396;2023-04-01T19:27:50;5.77;;;3.80;;
16270;SDS011;8243;49.048;8.396;2023-04-01T19:30:24;7.37;;;4.30;;
16270;SDS011;8243;49.048;8.396;2023-04-01T19:36:08;7.07;;;4.97;;
16270;SDS011;8243;49.048;8.396;2023-04-01T19:38:41;5.27;;;3.67;;
16270;SDS011;8243;49.048;8.396;2023-04-01T19:41:36;5.03;;;3.20;;
16270;SDS011;8243;49.048;8.396;2023-04-01T19:44:17;5.23;;;3.40;;
16270;SDS011;8243;49.048;8.396;2023-04-01T19:46:58;4.77;;;3.50;;
16270;SDS011;8243;49.048;8.396;2023-04-01T19:50:00;3.30;;;2.57;;
16270;SDS011;8243;49.048;8.396;2023-04-01T19:52:37;4.83;;;2.57;;
16270;SDS011;8243;49.048;8.396;2023-04-01T19:58:16;4.50;;;1.90;;
16270;SDS011;8243;49.048;8.396;2023-04-01T20:00:52;3.77;;;2.17;;
16270;SDS011;8243;49.048;8.396;2023-04-01T20:06:35;2.43;;;1.97;;
16270;SDS011;8243;49.048;8.396;2023-04-01T20:11:50;3.93;;;1.70;;
16270;SDS011;8243;49.048;8.396;2023-04-01T20:14:48;2.43;;;1.70;;
16270;SDS011;8243;49.048;8.396;2023-04-01T20:30:30;2.23;;;1.23;;
16270;SDS011;8243;49.048;8.396;2023-04-01T20:53:11;3.20;;;1.67;;
16270;SDS011;8243;49.048;8.396;2023-04-01T20:58:47;2.47;;;1.37;;
16270;SDS011;8243;49.048;8.396;2023-04-01T21:07:40;1.33;;;1.23;;
16270;SDS011;8243;49.048;8.396;2023-04-01T21:13:29;1.40;;;1.10;;
16270;SDS011;8243;49.048;8.396;2023-04-01T21:18:47;3.07;;;1.00;;
16270;SDS011;8243;49.048;8.396;2023-04-01T21:32:06;2.27;;;1.23;;
16270;SDS011;8243;49.048;8.396;2023-04-01T21:34:58;2.07;;;1.47;;
16270;SDS011;8243;49.048;8.396;2023-04-01T21:38:03;1.57;;;1.30;;
16270;SDS011;8243;49.048;8.396;2023-04-01T21:43:39;3.40;;;1.80;;
16270;SDS011;8243;49.048;8.396;2023-04-01T21:46:29;1.90;;;1.30;;
16270;SDS011;8243;49.048;8.396;2023-04-01T21:52:06;1.83;;;1.10;;
16270;SDS011;8243;49.048;8.396;2023-04-01T21:54:50;1.73;;;1.60;;
16270;SDS011;8243;49.048;8.396;2023-04-01T22:00:43;1.30;;;1.20;;
16270;SDS011;8243;49.048;8.396;2023-04-01T22:03:31;1.33;;;1.00;;
16270;SDS011;8243;49.048;8.396;2023-04-01T22:06:28;1.57;;;1.30;;
16270;SDS011;8243;49.048;8.396;2023-04-01T22:12:04;3.00;;;1.30;;
16270;SDS011;8243;49.048;8.396;2023-04-01T22:14:50;3.63;;;1.37;;
16270;SDS011;8243;49.048;8.396;2023-04-01T22:17:28;2.17;;;1.40;;
16270;SDS011;8243;49.048;8.396;2023-04-01T22:20:03;1.97;;;1.30;;
16270;SDS011;8243;49.048;8.396;2023-04-01T22:25:45;1.30;;;1.20;;
16270;SDS011;8243;49.048;8.396;2023-04-01T22:30:54;2.50;;;1.17;;
16270;SDS011;8243;49.048;8.396;2023-04-01T22:39:14;2.60;;;1.40;;
16270;SDS011;8243;49.048;8.396;2023-04-01T22:44:46;2.00;;;1.10;;
16270;SDS011;8243;49.048;8.396;2023-04-01T22:50:12;1.47;;;0.90;;
16270;SDS011;8243;49.048;8.396;2023-04-01T22:52:46;3.10;;;1.00;;
16270;SDS011;8243;49.048;8.396;2023-04-01T22:55:24;1.43;;;1.30;;
16270;SDS011;8243;49.048;8.396;2023-04-01T22:57:56;2.73;;;1.00;;
16270;SDS011;8243;49.048;8.396;2023-04-01T23:00:33;1.50;;;1.10;;
16270;SDS011;8243;49.048;8.396;2023-04-01T23:03:22;1.13;;;0.93;;
16270;SDS011;8243;49.048;8.396;2023-04-01T23:05:56;0.83;;;0.83;;
16270;SDS011;8243;49.048;8.396;2023-04-01T23:13:45;0.80;;;0.80;;
16270;SDS011;8243;49.048;8.396;2023-04-01T23:16:18;2.20;;;1.00;;
16270;SDS011;8243;49.048;8.396;2023-04-01T23:21:41;0.93;;;0.87;;
16270;SDS011;8243;49.048;8.396;2023-04-01T23:27:08;1.03;;;0.90;;
16270;SDS011;8243;49.048;8.396;2023-04-01T23:29:41;2.17;;;0.93;;
16270;SDS011;8243;49.048;8.396;2023-04-01T23:32:15;1.83;;;1.10;;
16270;SDS011;8243;49.048;8.396;2023-04-01T23:34:46;1.10;;;0.80;;
16270;SDS011;8243;49.048;8.396;2023-04-01T23:37:13;2.97;;;1.27;;
16270;SDS011;8243;49.048;8.396;2023-04-01T23:39:43;1.07;;;0.90;;
16270;SDS011;8243;49.048;8.396;2023-04-01T23:42:25;1.57;;;1.00;;
16270;SDS011;8243;49.048;8.396;2023-04-01T23:45:04;1.93;;;1.10;;
16270;SDS011;8243;49.048;8.396;2023-04-01T23:47:38;1.30;;;1.10;;
16270;SDS011;8243;49.048;8.396;2023-04-01T23:50:12;1.67;;;1.07;;
16270;SDS011;8243;49.048;8.396;2023-04-01T23:52:42;1.07;;;0.87;;
16270;SDS011;8243;49.048;8.396;2023-04-01T23:58:22;3.60;;;1.63;;
